sensor_id;sensor_type;location;lat;lon;timestamp;pressure;altitude;pressure_sealevel;temperature;humidity
3812;BME280;1921;49.368;11.068;2023-02-16T00:01:37;98808.41;;;-0.37;99.17
3812;BME280;1921;49.368;11.068;2023-02-16T00:04:19;98822.53;;;-0.30;98.55
3812;BME280;1921;49.368;11.068;2023-02-16T00:06:46;98741.66;;;-0.84;99.25
3812;BME280;1921;49.368;11.068;2023-02-16T00:09:12;98776.66;;;-0.67;99.03
3812;BME280;1921;49.368;11.068;2023-02-16T00:11:38;98756.63;;;-0.76;99.47
3812;BME280;1921;49.368;11.068;2023-02-16T00:14:23;98736.69;;;-0.87;99.13
3812;BME280;1921;49.368;11.068;2023-02-16T00:16:52;98798.59;;;-0.46;99.67
3812;BME280;1921;49.368;11.068;2023-02-16T00:21:52;98751.47;;;-0.92;99.04
3812;BME280;1921;49.368;11.068;2023-02-16T00:24:18;98736.03;;;-0.91;99.93
3812;BME280;1921;49.368;11.068;2023-02-16T00:26:44;98732.25;;;-1.01;100.00
3812;BME280;1921;49.368;11.068;2023-02-16T00:29:34;98778.53;;;-0.71;100.00
3812;BME280;1921;49.368;11.068;2023-02-16T00:32:04;98739.81;;;-0.98;100.00
3812;BME280;1921;49.368;11.068;2023-02-16T00:34:41;98776.38;;;-0.78;99.89
3812;BME280;1921;49.368;11.068;2023-02-16T00:37:11;98751.53;;;-0.94;100.00
3812;BME280;1921;49.368;11.068;2023-02-16T00:39:40;98718.28;;;-1.11;100.00
3812;BME280;1921;49.368;11.068;2023-02-16T00:42:22;98723.41;;;-1.11;100.00
3812;BME280;1921;49.368;11.068;2023-02-16T00:44:53;98734.16;;;-1.04;100.00
3812;BME280;1921;49.368;11.068;2023-02-16T00:47:36;98744.53;;;-1.08;100.00
3812;BME280;1921;49.368;11.068;2023-02-16T00:52:40;98757.41;;;-0.92;100.00
3812;BME280;1921;49.368;11.068;2023-02-16T00:55:23;98746.97;;;-1.04;100.00
3812;BME280;1921;49.368;11.068;2023-02-16T01:01:10;98743.72;;;-1.08;100.00
3812;BME280;1921;49.368;11.068;2023-02-16T01:03:37;98796.84;;;-0.78;100.00
3812;BME280;1921;49.368;11.068;2023-02-16T01:06:03;98739.72;;;-1.14;100.00
3812;BME280;1921;49.368;11.068;2023-02-16T01:08:47;98767.66;;;-0.92;100.00
3812;BME280;1921;49.368;11.068;2023-02-16T01:11:31;98786.00;;;-0.84;100.00
3812;BME280;1921;49.368;11.068;2023-02-16T01:13:57;98728.06;;;-1.19;100.00
3812;BME280;1921;49.368;11.068;2023-02-16T01:16:32;98727.31;;;-1.21;100.00
3812;BME280;1921;49.368;11.068;2023-02-16T01:18:59;98729.19;;;-1.25;100.00
3812;BME280;1921;49.368;11.068;2023-02-16T01:21:25;98719.03;;;-1.26;100.00
3812;BME280;1921;49.368;11.068;2023-02-16T01:23:50;98764.41;;;-1.13;100.00
3812;BME280;1921;49.368;11.068;2023-02-16T01:26:19;98761.72;;;-1.10;100.00
3812;BME280;1921;49.368;11.068;2023-02-16T01:28:47;98753.22;;;-1.10;100.00
3812;BME280;1921;49.368;11.068;2023-02-16T01:31:13;98715.88;;;-1.31;100.00
3812;BME280;1921;49.368;11.068;2023-02-16T01:33:40;98725.75;;;-1.24;100.00
3812;BME280;1921;49.368;11.068;2023-02-16T01:36:27;98749.06;;;-1.13;100.00
3812;BME280;1921;49.368;11.068;2023-02-16T01:38:54;98734.16;;;-1.22;100.00
3812;BME280;1921;49.368;11.068;2023-02-16T01:44:40;98709.19;;;-1.34;100.00
3812;BME280;1921;49.368;11.068;2023-02-16T01:47:44;98737.25;;;-1.15;100.00
3812;BME280;1921;49.368;11.068;2023-02-16T01:50:25;98717.78;;;-1.35;100.00
3812;BME280;1921;49.368;11.068;2023-02-16T01:53:11;98704.97;;;-1.35;100.00
3812;BME280;1921;49.368;11.068;2023-02-16T01:55:44;98748.69;;;-1.05;100.00
3812;BME280;1921;49.368;11.068;2023-02-16T01:58:38;98760.19;;;-0.96;100.00
3812;BME280;1921;49.368;11.068;2023-02-16T02:04:07;98711.00;;;-1.36;100.00
3812;BME280;1921;49.368;11.068;2023-02-16T02:06:53;98748.84;;;-1.08;100.00
3812;BME280;1921;49.368;11.068;2023-02-16T02:09:42;98741.25;;;-1.10;100.00
3812;BME280;1921;49.368;11.068;2023-02-16T02:12:31;98751.25;;;-1.05;100.00
3812;BME280;1921;49.368;11.068;2023-02-16T02:14:59;98759.75;;;-1.04;100.00
3812;BME280;1921;49.368;11.068;2023-02-16T02:17:25;98749.81;;;-1.11;100.00
3812;BME280;1921;49.368;11.068;2023-02-16T02:20:25;98702.63;;;-1.40;100.00
3812;BME280;1921;49.368;11.068;2023-02-16T02:23:39;98750.25;;;-1.02;100.00
3812;BME280;1921;49.368;11.068;2023-02-16T02:26:59;98738.50;;;-1.06;100.00
3812;BME280;1921;49.368;11.068;2023-02-16T02:35:50;98669.47;;;-1.41;100.00
3812;BME280;1921;49.368;11.068;2023-02-16T02:42:30;98726.63;;;-1.08;100.00
3812;BME280;1921;49.368;11.068;2023-02-16T02:45:06;98711.13;;;-1.22;100.00
3812;BME280;1921;49.368;11.068;2023-02-16T02:47:44;98674.06;;;-1.48;100.00
3812;BME280;1921;49.368;11.068;2023-02-16T02:53:11;98658.25;;;-1.56;100.00
3812;BME280;1921;49.368;11.068;2023-02-16T02:55:45;98712.88;;;-1.22;100.00
3812;BME280;1921;49.368;11.068;2023-02-16T02:58:33;98684.81;;;-1.41;100.00
3812;BME280;1921;49.368;11.068;2023-02-16T03:01:37;98718.59;;;-1.17;100.00
3812;BME280;1921;49.368;11.068;2023-02-16T03:04:07;98677.97;;;-1.41;100.00
3812;BME280;1921;49.368;11.068;2023-02-16T03:06:39;98715.34;;;-1.21;100.00
3812;BME280;1921;49.368;11.068;2023-02-16T03:09:12;98643.97;;;-1.60;100.00
3812;BME280;1921;49.368;11.068;2023-02-16T03:11:39;98704.13;;;-1.18;100.00
3812;BME280;1921;49.368;11.068;2023-02-16T03:14:32;98699.59;;;-1.13;100.00
3812;BME280;1921;49.368;11.068;2023-02-16T03:17:05;98656.38;;;-1.35;100.00
3812;BME280;1921;49.368;11.068;2023-02-16T03:19:51;98671.50;;;-1.30;100.00
3812;BME280;1921;49.368;11.068;2023-02-16T03:22:37;98652.72;;;-1.31;100.00
3812;BME280;1921;49.368;11.068;2023-02-16T03:25:25;98669.06;;;-1.16;100.00
3812;BME280;1921;49.368;11.068;2023-02-16T03:28:12;98654.44;;;-1.14;100.00
3812;BME280;1921;49.368;11.068;2023-02-16T03:30:58;98650.75;;;-1.09;100.00
3812;BME280;1921;49.368;11.068;2023-02-16T03:33:26;98672.16;;;-0.94;100.00
3812;BME280;1921;49.368;11.068;2023-02-16T03:35:53;98649.44;;;-1.00;100.00
3812;BME280;1921;49.368;11.068;2023-02-16T03:38:20;98681.34;;;-0.90;100.00
3812;BME280;1921;49.368;11.068;2023-02-16T03:40:48;98569.34;;;-1.51;100.00
3812;BME280;1921;49.368;11.068;2023-02-16T03:43:14;98627.56;;;-1.05;100.00
3812;BME280;1921;49.368;11.068;2023-02-16T03:45:42;98669.78;;;-0.81;100.00
3812;BME280;1921;49.368;11.068;2023-02-16T03:48:08;98636.31;;;-0.94;100.00
3812;BME280;1921;49.368;11.068;2023-02-16T03:50:34;98681.56;;;-0.61;100.00
3812;BME280;1921;49.368;11.068;2023-02-16T03:53:00;98659.50;;;-0.79;100.00
3812;BME280;1921;49.368;11.068;2023-02-16T03:55:39;98656.16;;;-0.82;100.00
3812;BME280;1921;49.368;11.068;2023-02-16T03:58:07;98616.34;;;-1.03;100.00
3812;BME280;1921;49.368;11.068;2023-02-16T04:00:35;98637.00;;;-0.90;100.00
3812;BME280;1921;49.368;11.068;2023-02-16T04:03:02;98637.75;;;-0.88;100.00
3812;BME280;1921;49.368;11.068;2023-02-16T04:05:28;98613.38;;;-0.95;100.00
3812;BME280;1921;49.368;11.068;2023-02-16T04:07:53;98623.03;;;-1.00;100.00
3812;BME280;1921;49.368;11.068;2023-02-16T04:10:19;98662.16;;;-0.65;100.00
3812;BME280;1921;49.368;11.068;2023-02-16T04:12:45;98642.97;;;-0.74;100.00
3812;BME280;1921;49.368;11.068;2023-02-16T04:15:15;98656.09;;;-0.80;100.00
3812;BME280;1921;49.368;11.068;2023-02-16T04:17:42;98651.44;;;-0.89;100.00
3812;BME280;1921;49.368;11.068;2023-02-16T04:20:11;98666.91;;;-0.75;100.00
3812;BME280;1921;49.368;11.068;2023-02-16T04:22:37;98731.66;;;-0.40;100.00
3812;BME280;1921;49.368;11.068;2023-02-16T04:25:03;98667.19;;;-0.64;100.00
3812;BME280;1921;49.368;11.068;2023-02-16T04:27:29;98637.03;;;-0.74;100.00
3812;BME280;1921;49.368;11.068;2023-02-16T04:29:55;98669.84;;;-0.49;100.00
3812;BME280;1921;49.368;11.068;2023-02-16T04:32:21;98662.81;;;-0.46;100.00
3812;BME280;1921;49.368;11.068;2023-02-16T04:34:47;98664.78;;;-0.51;100.00
3812;BME280;1921;49.368;11.068;2023-02-16T04:37:12;98730.13;;;-0.11;100.00
3812;BME280;1921;49.368;11.068;2023-02-16T04:39:38;98686.97;;;-0.34;100.00
3812;BME280;1921;49.368;11.068;2023-02-16T04:42:04;98710.03;;;-0.18;100.00
3812;BME280;1921;49.368;11.068;2023-02-16T04:44:30;98651.50;;;-0.42;100.00
3812;BME280;1921;49.368;11.068;2023-02-16T04:46:56;98680.78;;;-0.30;100.00
3812;BME280;1921;49.368;11.068;2023-02-16T04:49:22;98653.97;;;-0.40;100.00
3812;BME280;1921;49.368;11.068;2023-02-16T04:51:47;98686.72;;;-0.30;100.00
3812;BME280;1921;49.368;11.068;2023-02-16T04:54:13;98630.91;;;-0.56;100.00
3812;BME280;1921;49.368;11.068;2023-02-16T04:56:39;98662.66;;;-0.27;100.00
3812;BME280;1921;49.368;11.068;2023-02-16T04:59:07;98731.03;;;-0.12;100.00
3812;BME280;1921;49.368;11.068;2023-02-16T05:01:33;98646.38;;;-0.58;100.00
3812;BME280;1921;49.368;11.068;2023-02-16T05:03:59;98652.72;;;-0.65;100.00
3812;BME280;1921;49.368;11.068;2023-02-16T05:06:24;98679.00;;;-0.45;100.00
3812;BME280;1921;49.368;11.068;2023-02-16T05:08:50;98664.53;;;-0.62;100.00
3812;BME280;1921;49.368;11.068;2023-02-16T05:11:16;98680.56;;;-0.74;100.00
3812;BME280;1921;49.368;11.068;2023-02-16T05:14:00;98651.22;;;-0.85;100.00
3812;BME280;1921;49.368;11.068;2023-02-16T05:17:01;98680.25;;;-0.68;100.00
3812;BME280;1921;49.368;11.068;2023-02-16T05:19:27;98669.16;;;-0.69;100.00
3812;BME280;1921;49.368;11.068;2023-02-16T05:21:52;98646.84;;;-0.83;100.00
3812;BME280;1921;49.368;11.068;2023-02-16T05:24:18;98649.16;;;-0.78;100.00
3812;BME280;1921;49.368;11.068;2023-02-16T05:26:44;98713.91;;;-0.43;100.00
3812;BME280;1921;49.368;11.068;2023-02-16T05:29:09;98696.44;;;-0.52;100.00
3812;BME280;1921;49.368;11.068;2023-02-16T05:31:35;98665.78;;;-0.53;100.00
3812;BME280;1921;49.368;11.068;2023-02-16T05:34:01;98688.16;;;-0.57;100.00
3812;BME280;1921;49.368;11.068;2023-02-16T05:36:27;98723.06;;;-0.39;100.00
3812;BME280;1921;49.368;11.068;2023-02-16T05:38:52;98643.69;;;-0.88;100.00
3812;BME280;1921;49.368;11.068;2023-02-16T05:41:18;98680.56;;;-0.74;100.00
3812;BME280;1921;49.368;11.068;2023-02-16T05:43:58;98679.66;;;-0.73;100.00
3812;BME280;1921;49.368;11.068;2023-02-16T05:46:27;98675.94;;;-0.68;100.00
3812;BME280;1921;49.368;11.068;2023-02-16T05:48:54;98709.16;;;-0.66;100.00
3812;BME280;1921;49.368;11.068;2023-02-16T05:51:20;98678.31;;;-0.80;100.00
3812;BME280;1921;49.368;11.068;2023-02-16T05:53:46;98576.09;;;-1.50;100.00
3812;BME280;1921;49.368;11.068;2023-02-16T05:56:12;98686.38;;;-0.88;100.00
3812;BME280;1921;49.368;11.068;2023-02-16T05:58:39;98677.78;;;-0.87;100.00
3812;BME280;1921;49.368;11.068;2023-02-16T06:01:05;98642.28;;;-1.26;100.00
3812;BME280;1921;49.368;11.068;2023-02-16T06:03:31;98678.09;;;-1.09;100.00
3812;BME280;1921;49.368;11.068;2023-02-16T06:06:00;98719.53;;;-0.85;100.00
3812;BME280;1921;49.368;11.068;2023-02-16T06:08:27;98725.59;;;-0.70;100.00
3812;BME280;1921;49.368;11.068;2023-02-16T06:10:53;98709.78;;;-0.78;100.00
3812;BME280;1921;49.368;11.068;2023-02-16T06:13:20;98713.09;;;-0.76;100.00
3812;BME280;1921;49.368;11.068;2023-02-16T06:15:50;98699.94;;;-0.86;100.00
3812;BME280;1921;49.368;11.068;2023-02-16T06:18:17;98696.88;;;-0.93;100.00
3812;BME280;1921;49.368;11.068;2023-02-16T06:20:43;98750.34;;;-0.53;100.00
3812;BME280;1921;49.368;11.068;2023-02-16T06:23:11;98699.13;;;-0.87;100.00
3812;BME280;1921;49.368;11.068;2023-02-16T06:25:40;98697.53;;;-0.89;100.00
3812;BME280;1921;49.368;11.068;2023-02-16T06:28:07;98744.41;;;-0.71;100.00
3812;BME280;1921;49.368;11.068;2023-02-16T06:30:32;98681.19;;;-1.20;100.00
3812;BME280;1921;49.368;11.068;2023-02-16T06:33:00;98686.44;;;-1.05;100.00
3812;BME280;1921;49.368;11.068;2023-02-16T06:35:27;98732.75;;;-0.77;100.00
3812;BME280;1921;49.368;11.068;2023-02-16T06:37:52;98696.88;;;-0.93;100.00
3812;BME280;1921;49.368;11.068;2023-02-16T06:40:18;98680.00;;;-0.97;100.00
3812;BME280;1921;49.368;11.068;2023-02-16T06:42:44;98682.34;;;-0.92;100.00
3812;BME280;1921;49.368;11.068;2023-02-16T06:45:11;98717.91;;;-0.70;100.00
3812;BME280;1921;49.368;11.068;2023-02-16T06:47:37;98689.78;;;-0.88;100.00
3812;BME280;1921;49.368;11.068;2023-02-16T06:50:05;98729.25;;;-0.59;100.00
3812;BME280;1921;49.368;11.068;2023-02-16T06:52:31;98778.97;;;-0.30;100.00
3812;BME280;1921;49.368;11.068;2023-02-16T06:54:57;98714.06;;;-0.62;100.00
3812;BME280;1921;49.368;11.068;2023-02-16T06:57:23;98714.94;;;-0.63;100.00
3812;BME280;1921;49.368;11.068;2023-02-16T06:59:49;98741.31;;;-0.45;100.00
3812;BME280;1921;49.368;11.068;2023-02-16T07:02:14;98765.84;;;-0.23;100.00
3812;BME280;1921;49.368;11.068;2023-02-16T07:04:40;98783.28;;;-0.14;100.00
3812;BME280;1921;49.368;11.068;2023-02-16T07:07:06;98711.59;;;-0.47;100.00
3812;BME280;1921;49.368;11.068;2023-02-16T07:09:34;98755.91;;;-0.14;100.00
3812;BME280;1921;49.368;11.068;2023-02-16T07:12:00;98725.75;;;-0.24;100.00
3812;BME280;1921;49.368;11.068;2023-02-16T07:14:25;98743.94;;;0.03;100.00
3812;BME280;1921;49.368;11.068;2023-02-16T07:16:51;98726.41;;;-0.05;100.00
3812;BME280;1921;49.368;11.068;2023-02-16T07:19:17;98780.72;;;0.33;100.00
3812;BME280;1921;49.368;11.068;2023-02-16T07:21:43;98772.47;;;0.28;100.00
3812;BME280;1921;49.368;11.068;2023-02-16T07:24:09;98740.78;;;0.13;100.00
3812;BME280;1921;49.368;11.068;2023-02-16T07:26:35;98735.81;;;0.10;100.00
3812;BME280;1921;49.368;11.068;2023-02-16T07:29:03;98764.25;;;0.37;100.00
3812;BME280;1921;49.368;11.068;2023-02-16T07:31:29;98783.03;;;0.53;100.00
3812;BME280;1921;49.368;11.068;2023-02-16T07:33:55;98710.91;;;0.28;100.00
3812;BME280;1921;49.368;11.068;2023-02-16T07:36:21;98735.00;;;0.56;100.00
3812;BME280;1921;49.368;11.068;2023-02-16T07:38:46;98746.72;;;0.75;100.00
3812;BME280;1921;49.368;11.068;2023-02-16T07:41:12;98703.78;;;0.63;100.00
3812;BME280;1921;49.368;11.068;2023-02-16T07:43:38;98777.63;;;1.18;100.00
3812;BME280;1921;49.368;11.068;2023-02-16T07:46:04;98615.88;;;0.30;100.00
3812;BME280;1921;49.368;11.068;2023-02-16T07:48:32;98550.00;;;0.16;100.00
3812;BME280;1921;49.368;11.068;2023-02-16T07:50:57;98721.47;;;1.41;100.00
3812;BME280;1921;49.368;11.068;2023-02-16T07:53:24;98715.66;;;1.66;100.00
3812;BME280;1921;49.368;11.068;2023-02-16T07:55:51;98756.09;;;2.05;100.00
3812;BME280;1921;49.368;11.068;2023-02-16T07:58:17;98731.28;;;2.04;99.27
3812;BME280;1921;49.368;11.068;2023-02-16T08:01:11;98759.63;;;2.31;98.10
3812;BME280;1921;49.368;11.068;2023-02-16T08:03:37;98610.59;;;1.47;97.13
3812;BME280;1921;49.368;11.068;2023-02-16T08:06:04;98683.38;;;1.88;94.39
3812;BME280;1921;49.368;11.068;2023-02-16T08:08:31;98699.59;;;2.03;94.58
3812;BME280;1921;49.368;11.068;2023-02-16T08:10:56;98671.50;;;2.00;94.51
3812;BME280;1921;49.368;11.068;2023-02-16T08:13:23;98707.72;;;2.24;94.02
3812;BME280;1921;49.368;11.068;2023-02-16T08:15:49;98725.41;;;2.56;92.92
3812;BME280;1921;49.368;11.068;2023-02-16T08:18:14;98685.72;;;2.06;91.64
3812;BME280;1921;49.368;11.068;2023-02-16T08:20:41;98694.13;;;2.22;93.99
3812;BME280;1921;49.368;11.068;2023-02-16T08:23:06;98704.06;;;2.54;94.14
3812;BME280;1921;49.368;11.068;2023-02-16T08:25:35;98709.56;;;2.62;93.38
3812;BME280;1921;49.368;11.068;2023-02-16T08:28:02;98758.38;;;3.16;93.83
3812;BME280;1921;49.368;11.068;2023-02-16T08:30:28;98706.41;;;2.96;92.25
3812;BME280;1921;49.368;11.068;2023-02-16T08:32:54;98731.47;;;3.33;93.37
3812;BME280;1921;49.368;11.068;2023-02-16T08:35:28;98682.38;;;3.21;89.73
3812;BME280;1921;49.368;11.068;2023-02-16T08:37:59;98756.97;;;3.99;87.99
3812;BME280;1921;49.368;11.068;2023-02-16T08:40:26;98718.25;;;3.99;88.86
3812;BME280;1921;49.368;11.068;2023-02-16T08:42:52;98738.47;;;4.53;86.17
3812;BME280;1921;49.368;11.068;2023-02-16T08:45:18;98698.06;;;4.52;87.36
3812;BME280;1921;49.368;11.068;2023-02-16T08:47:44;98651.16;;;4.35;86.65
3812;BME280;1921;49.368;11.068;2023-02-16T08:50:10;98697.81;;;4.79;80.81
3812;BME280;1921;49.368;11.068;2023-02-16T08:52:36;98698.00;;;5.11;80.16
3812;BME280;1921;49.368;11.068;2023-02-16T08:55:03;98739.72;;;5.52;75.51
3812;BME280;1921;49.368;11.068;2023-02-16T08:57:32;98714.94;;;5.60;73.22
3812;BME280;1921;49.368;11.068;2023-02-16T08:59:58;98713.63;;;5.66;74.71
3812;BME280;1921;49.368;11.068;2023-02-16T09:02:42;98723.84;;;6.01;70.13
3812;BME280;1921;49.368;11.068;2023-02-16T09:05:09;98742.06;;;6.22;68.39
3812;BME280;1921;49.368;11.068;2023-02-16T09:07:34;98747.31;;;6.32;69.49
3812;BME280;1921;49.368;11.068;2023-02-16T09:10:02;98691.94;;;6.01;70.49
3812;BME280;1921;49.368;11.068;2023-02-16T09:12:28;98705.34;;;6.17;69.15
3812;BME280;1921;49.368;11.068;2023-02-16T09:14:55;98700.31;;;6.36;68.79
3812;BME280;1921;49.368;11.068;2023-02-16T09:17:23;98746.22;;;7.19;65.84
3812;BME280;1921;49.368;11.068;2023-02-16T09:19:49;98692.69;;;7.49;62.48
3812;BME280;1921;49.368;11.068;2023-02-16T09:22:15;98736.97;;;8.47;61.58
3812;BME280;1921;49.368;11.068;2023-02-16T09:24:40;98727.06;;;9.09;59.35
3812;BME280;1921;49.368;11.068;2023-02-16T09:27:06;98774.19;;;9.62;56.93
3812;BME280;1921;49.368;11.068;2023-02-16T09:29:32;98747.31;;;9.71;54.94
3812;BME280;1921;49.368;11.068;2023-02-16T09:31:59;98758.47;;;9.54;54.45
3812;BME280;1921;49.368;11.068;2023-02-16T09:34:24;98780.22;;;8.97;58.43
3812;BME280;1921;49.368;11.068;2023-02-16T09:36:51;98736.50;;;9.66;55.82
3812;BME280;1921;49.368;11.068;2023-02-16T09:39:18;98739.97;;;10.58;55.21
3812;BME280;1921;49.368;11.068;2023-02-16T09:45:08;98782.81;;;12.29;50.06
3812;BME280;1921;49.368;11.068;2023-02-16T09:47:42;98805.56;;;13.36;47.41
3812;BME280;1921;49.368;11.068;2023-02-16T09:50:27;98775.38;;;12.50;48.15
3812;BME280;1921;49.368;11.068;2023-02-16T09:53:13;98797.25;;;13.88;45.50
3812;BME280;1921;49.368;11.068;2023-02-16T09:59:03;98780.56;;;15.05;42.15
3812;BME280;1921;49.368;11.068;2023-02-16T10:04:41;98740.34;;;13.96;43.26
3812;BME280;1921;49.368;11.068;2023-02-16T10:09:53;98745.84;;;14.49;43.02
3812;BME280;1921;49.368;11.068;2023-02-16T10:12:24;98773.19;;;15.23;42.09
3812;BME280;1921;49.368;11.068;2023-02-16T10:15:06;98764.22;;;15.32;41.88
3812;BME280;1921;49.368;11.068;2023-02-16T10:20:11;98759.38;;;16.03;41.27
3812;BME280;1921;49.368;11.068;2023-02-16T10:31:40;98754.84;;;16.33;39.79
3812;BME280;1921;49.368;11.068;2023-02-16T10:38:02;98752.13;;;15.76;41.29
3812;BME280;1921;49.368;11.068;2023-02-16T10:43:12;98713.16;;;15.12;42.40
3812;BME280;1921;49.368;11.068;2023-02-16T10:48:09;98704.28;;;16.38;39.08
3812;BME280;1921;49.368;11.068;2023-02-16T10:59:36;98731.84;;;17.28;39.04
3812;BME280;1921;49.368;11.068;2023-02-16T11:02:18;98723.53;;;17.59;37.85
3812;BME280;1921;49.368;11.068;2023-02-16T11:04:48;98680.41;;;16.82;38.07
3812;BME280;1921;49.368;11.068;2023-02-16T11:07:23;98712.78;;;17.32;38.05
3812;BME280;1921;49.368;11.068;2023-02-16T11:09:51;98678.97;;;17.08;37.95
3812;BME280;1921;49.368;11.068;2023-02-16T11:18:22;98702.69;;;18.25;36.68
3812;BME280;1921;49.368;11.068;2023-02-16T11:20:53;98632.59;;;18.16;35.57
3812;BME280;1921;49.368;11.068;2023-02-16T11:23:31;98667.91;;;17.54;37.64
3812;BME280;1921;49.368;11.068;2023-02-16T11:26:00;98694.75;;;18.12;36.68
3812;BME280;1921;49.368;11.068;2023-02-16T11:28:39;98617.31;;;17.43;37.28
3812;BME280;1921;49.368;11.068;2023-02-16T11:31:36;98649.00;;;17.98;36.85
3812;BME280;1921;49.368;11.068;2023-02-16T11:37:26;98686.16;;;18.77;36.85
3812;BME280;1921;49.368;11.068;2023-02-16T11:39:54;98681.63;;;18.58;36.50
3812;BME280;1921;49.368;11.068;2023-02-16T11:42:29;98621.25;;;18.55;36.09
3812;BME280;1921;49.368;11.068;2023-02-16T11:44:58;98634.03;;;19.18;35.37
3812;BME280;1921;49.368;11.068;2023-02-16T11:47:30;98641.69;;;19.59;33.78
3812;BME280;1921;49.368;11.068;2023-02-16T11:50:30;98631.66;;;18.96;35.79
3812;BME280;1921;49.368;11.068;2023-02-16T11:55:43;98631.59;;;20.19;33.23
3812;BME280;1921;49.368;11.068;2023-02-16T11:58:23;98657.16;;;20.38;34.48
3812;BME280;1921;49.368;11.068;2023-02-16T12:04:39;98645.69;;;20.51;33.62
3812;BME280;1921;49.368;11.068;2023-02-16T12:07:36;98627.75;;;20.47;33.09
3812;BME280;1921;49.368;11.068;2023-02-16T12:10:17;98640.22;;;19.70;33.64
3812;BME280;1921;49.368;11.068;2023-02-16T12:13:17;98647.88;;;18.47;35.70
3812;BME280;1921;49.368;11.068;2023-02-16T12:15:53;98603.19;;;17.58;37.25
3812;BME280;1921;49.368;11.068;2023-02-16T12:21:43;98552.84;;;17.05;38.11
3812;BME280;1921;49.368;11.068;2023-02-16T12:26:55;98624.06;;;17.11;39.09
3812;BME280;1921;49.368;11.068;2023-02-16T12:29:53;98621.25;;;17.19;38.99
3812;BME280;1921;49.368;11.068;2023-02-16T12:32:52;98582.94;;;17.23;38.63
3812;BME280;1921;49.368;11.068;2023-02-16T12:35:59;98624.19;;;17.38;38.98
3812;BME280;1921;49.368;11.068;2023-02-16T12:39:02;98615.16;;;17.19;39.47
3812;BME280;1921;49.368;11.068;2023-02-16T12:44:41;98619.91;;;17.30;39.59
3812;BME280;1921;49.368;11.068;2023-02-16T12:47:18;98543.88;;;16.92;39.22
3812;BME280;1921;49.368;11.068;2023-02-16T12:50:13;98586.91;;;17.06;39.48
3812;BME280;1921;49.368;11.068;2023-02-16T12:52:50;98580.03;;;17.05;39.59
3812;BME280;1921;49.368;11.068;2023-02-16T12:55:41;98574.69;;;17.33;40.02
3812;BME280;1921;49.368;11.068;2023-02-16T13:00:48;98594.59;;;17.90;39.65
3812;BME280;1921;49.368;11.068;2023-02-16T13:04:17;98586.72;;;18.43;37.41
3812;BME280;1921;49.368;11.068;2023-02-16T13:06:55;98530.25;;;17.30;38.52
3812;BME280;1921;49.368;11.068;2023-02-16T13:10:26;98574.09;;;18.06;37.99
3812;BME280;1921;49.368;11.068;2023-02-16T13:15:45;98567.81;;;18.66;36.68
3812;BME280;1921;49.368;11.068;2023-02-16T13:18:27;98558.66;;;18.75;36.61
3812;BME280;1921;49.368;11.068;2023-02-16T13:27:14;98566.56;;;19.92;33.94
3812;BME280;1921;49.368;11.068;2023-02-16T13:33:18;98555.13;;;19.98;33.74
3812;BME280;1921;49.368;11.068;2023-02-16T13:36:09;98564.19;;;20.15;33.86
3812;BME280;1921;49.368;11.068;2023-02-16T13:39:33;98550.41;;;20.06;34.37
3812;BME280;1921;49.368;11.068;2023-02-16T13:45:27;98508.09;;;19.23;34.77
3812;BME280;1921;49.368;11.068;2023-02-16T13:47:56;98560.81;;;19.12;35.15
3812;BME280;1921;49.368;11.068;2023-02-16T13:50:32;98516.97;;;18.84;36.06
3812;BME280;1921;49.368;11.068;2023-02-16T13:53:17;98534.63;;;19.03;36.14
3812;BME280;1921;49.368;11.068;2023-02-16T13:55:44;98555.22;;;18.88;35.50
3812;BME280;1921;49.368;11.068;2023-02-16T14:00:42;98498.31;;;18.52;34.97
3812;BME280;1921;49.368;11.068;2023-02-16T14:14:38;98528.06;;;17.40;36.14
3812;BME280;1921;49.368;11.068;2023-02-16T14:22:49;98545.84;;;17.25;36.86
3812;BME280;1921;49.368;11.068;2023-02-16T14:27:51;98520.47;;;17.79;35.87
3812;BME280;1921;49.368;11.068;2023-02-16T14:38:31;98577.75;;;18.44;35.52
3812;BME280;1921;49.368;11.068;2023-02-16T14:41:03;98501.78;;;17.87;36.07
3812;BME280;1921;49.368;11.068;2023-02-16T14:43:43;98568.78;;;17.86;36.23
3812;BME280;1921;49.368;11.068;2023-02-16T14:46:50;98570.59;;;17.31;37.58
3812;BME280;1921;49.368;11.068;2023-02-16T14:58:36;98519.47;;;16.00;38.83
3812;BME280;1921;49.368;11.068;2023-02-16T15:01:15;98548.91;;;15.88;39.90
3812;BME280;1921;49.368;11.068;2023-02-16T15:03:54;98495.88;;;15.64;39.42
3812;BME280;1921;49.368;11.068;2023-02-16T15:06:45;98531.75;;;15.71;40.21
3812;BME280;1921;49.368;11.068;2023-02-16T15:09:24;98516.06;;;15.42;41.20
3812;BME280;1921;49.368;11.068;2023-02-16T15:11:56;98574.75;;;15.64;41.32
3812;BME280;1921;49.368;11.068;2023-02-16T15:17:44;98541.63;;;15.33;41.65
3812;BME280;1921;49.368;11.068;2023-02-16T15:20:37;98532.03;;;15.61;41.34
3812;BME280;1921;49.368;11.068;2023-02-16T15:23:20;98516.72;;;16.08;40.29
3812;BME280;1921;49.368;11.068;2023-02-16T15:25:59;98578.50;;;17.24;38.80
3812;BME280;1921;49.368;11.068;2023-02-16T15:28:38;98456.19;;;16.08;39.03
3812;BME280;1921;49.368;11.068;2023-02-16T15:31:06;98574.31;;;16.18;40.12
3812;BME280;1921;49.368;11.068;2023-02-16T15:33:39;98533.16;;;15.67;41.22
3812;BME280;1921;49.368;11.068;2023-02-16T15:36:22;98553.94;;;15.32;42.15
3812;BME280;1921;49.368;11.068;2023-02-16T15:39:01;98509.16;;;14.75;42.72
3812;BME280;1921;49.368;11.068;2023-02-16T15:41:37;98571.47;;;14.66;43.48
3812;BME280;1921;49.368;11.068;2023-02-16T15:44:06;98552.06;;;14.52;44.25
3812;BME280;1921;49.368;11.068;2023-02-16T15:46:34;98534.78;;;14.20;44.34
3812;BME280;1921;49.368;11.068;2023-02-16T15:49:24;98541.31;;;14.24;45.01
3812;BME280;1921;49.368;11.068;2023-02-16T15:51:50;98516.06;;;13.86;45.43
3812;BME280;1921;49.368;11.068;2023-02-16T15:54:32;98528.69;;;13.82;45.78
3812;BME280;1921;49.368;11.068;2023-02-16T15:57:27;98469.16;;;13.45;46.01
3812;BME280;1921;49.368;11.068;2023-02-16T16:00:20;98493.50;;;13.54;46.28
3812;BME280;1921;49.368;11.068;2023-02-16T16:02:53;98551.06;;;13.93;46.55
3812;BME280;1921;49.368;11.068;2023-02-16T16:05:30;98522.59;;;13.67;46.45
3812;BME280;1921;49.368;11.068;2023-02-16T16:08:00;98506.44;;;13.55;46.54
3812;BME280;1921;49.368;11.068;2023-02-16T16:10:35;98553.97;;;13.75;46.79
3812;BME280;1921;49.368;11.068;2023-02-16T16:13:16;98554.19;;;13.65;47.48
3812;BME280;1921;49.368;11.068;2023-02-16T16:15:47;98548.53;;;13.54;47.55